Time;durP1;ratioP1;P1;durP2;ratioP2;P2;SDS_P1;SDS_P2;PMS_P1;PMS_P2;Temp;Humidity;BMP_temperature;BMP_pressure;BME280_temperature;BME280_humidity;BME280_pressure;Samples;Min_cycle;Max_cycle;Signal;HPM_P1;HPM_P2
2024/04/05 00:02:23;;;;;;;44.42;7.15;;;;;;;;;;5045063;28;25134;-62
2024/04/05 00:04:49;;;;;;;44.55;8.15;;;;;;;;;;5051689;28;25059;-61
2024/04/05 00:07:15;;;;;;;47.50;8.30;;;;;;;;;;5043733;28;25158;-64
2024/04/05 00:09:41;;;;;;;48.55;8.95;;;;;;;;;;5041982;28;25071;-63
2024/04/05 00:12:08;;;;;;;42.20;9.40;;;;;;;;;;5047078;28;25162;-63
2024/04/05 00:14:34;;;;;;;51.75;9.57;;;;;;;;;;5049144;28;25060;-62
2024/04/05 00:17:00;;;;;;;45.30;8.38;;;;;;;;;;5037911;28;25083;-62
2024/04/05 00:19:26;;;;;;;39.83;8.73;;;;;;;;;;5039479;28;25089;-62
2024/04/05 00:21:52;;;;;;;38.75;8.05;;;;;;;;;;5039476;28;25063;-64
2024/04/05 00:24:18;;;;;;;41.28;8.93;;;;;;;;;;5042953;28;25144;-63
2024/04/05 00:26:44;;;;;;;42.88;7.97;;;;;;;;;;5042843;28;25053;-62
2024/04/05 00:29:10;;;;;;;43.20;8.88;;;;;;;;;;5047562;28;25086;-62
2024/04/05 00:31:36;;;;;;;46.28;8.85;;;;;;;;;;5043340;28;25068;-62
2024/04/05 00:34:02;;;;;;;48.10;9.13;;;;;;;;;;5042673;28;25072;-63
2024/04/05 00:36:28;;;;;;;50.72;9.57;;;;;;;;;;5047376;28;25134;-61
2024/04/05 00:38:54;;;;;;;51.65;9.05;;;;;;;;;;5039890;28;25048;-62
2024/04/05 00:41:21;;;;;;;45.97;9.38;;;;;;;;;;5047481;28;25048;-62
2024/04/05 00:43:48;;;;;;;45.25;9.02;;;;;;;;;;5044655;28;25160;-63
2024/04/05 00:46:14;;;;;;;43.50;9.75;;;;;;;;;;5030014;28;25056;-63
2024/04/05 00:48:40;;;;;;;38.92;8.80;;;;;;;;;;5029082;28;25072;-64
2024/04/05 00:51:07;;;;;;;43.97;9.60;;;;;;;;;;5046032;28;25052;-62
2024/04/05 00:53:33;;;;;;;38.47;9.60;;;;;;;;;;5045463;28;25088;-63
2024/04/05 00:56:00;;;;;;;46.53;8.75;;;;;;;;;;5043892;28;25153;-63
2024/04/05 00:58:29;;;;;;;45.10;8.98;;;;;;;;;;5025891;28;25104;-62
2024/04/05 01:00:55;;;;;;;44.17;8.73;;;;;;;;;;5048051;28;25124;-63
2024/04/05 01:03:21;;;;;;;42.75;10.02;;;;;;;;;;5045190;28;25064;-62
2024/04/05 01:05:47;;;;;;;41.45;9.65;;;;;;;;;;5043351;28;25122;-62
2024/04/05 01:08:14;;;;;;;47.22;9.88;;;;;;;;;;5027587;28;25065;-63
2024/04/05 01:10:43;;;;;;;39.33;8.70;;;;;;;;;;5036185;28;25168;-63
2024/04/05 01:13:11;;;;;;;52.60;9.98;;;;;;;;;;5042832;28;25079;-62
2024/04/05 01:15:37;;;;;;;40.47;7.97;;;;;;;;;;5041172;28;25104;-63
2024/04/05 01:18:04;;;;;;;42.08;9.65;;;;;;;;;;5043511;28;25077;-62
2024/04/05 01:20:31;;;;;;;42.95;9.23;;;;;;;;;;5044773;28;25238;-62
2024/04/05 01:23:00;;;;;;;43.80;9.98;;;;;;;;;;5062368;28;25063;-64
2024/04/05 01:25:26;;;;;;;58.28;11.40;;;;;;;;;;5044619;28;25072;-63
2024/04/05 01:27:52;;;;;;;41.33;8.93;;;;;;;;;;5038481;28;25067;-64
2024/04/05 01:30:18;;;;;;;47.58;11.30;;;;;;;;;;5040137;28;25071;-64
2024/04/05 01:32:48;;;;;;;39.10;10.05;;;;;;;;;;5042441;28;25074;-62
2024/04/05 01:35:14;;;;;;;51.92;9.85;;;;;;;;;;5027558;28;25067;-62
2024/04/05 01:37:40;;;;;;;39.67;9.60;;;;;;;;;;5030293;28;25073;-63
2024/04/05 01:40:07;;;;;;;40.35;8.43;;;;;;;;;;5045736;28;25085;-62
2024/04/05 01:42:33;;;;;;;41.60;9.55;;;;;;;;;;5028060;28;25075;-63
2024/04/05 01:44:59;;;;;;;44.83;9.75;;;;;;;;;;5040793;28;25070;-62
2024/04/05 01:47:25;;;;;;;32.45;8.23;;;;;;;;;;5045517;28;25091;-64
2024/04/05 01:49:52;;;;;;;48.30;8.90;;;;;;;;;;5043145;28;25055;-63
2024/04/05 01:52:18;;;;;;;42.10;8.45;;;;;;;;;;5042720;28;25102;-62
2024/04/05 01:54:44;;;;;;;43.67;8.90;;;;;;;;;;5021790;28;25093;-63
2024/04/05 01:57:10;;;;;;;42.83;9.68;;;;;;;;;;5040962;28;25164;-61
2024/04/05 01:59:36;;;;;;;41.17;8.80;;;;;;;;;;5043233;28;25171;-62
2024/04/05 02:02:02;;;;;;;41.70;9.13;;;;;;;;;;5040629;28;25050;-62
2024/04/05 02:04:28;;;;;;;35.65;8.88;;;;;;;;;;5038486;28;25073;-62
2024/04/05 02:06:54;;;;;;;35.33;8.60;;;;;;;;;;5041233;28;25098;-63
2024/04/05 02:09:20;;;;;;;47.15;8.45;;;;;;;;;;5039190;28;25154;-62
2024/04/05 02:11:47;;;;;;;37.33;8.07;;;;;;;;;;5045745;28;25074;-63
2024/04/05 02:14:13;;;;;;;37.10;7.80;;;;;;;;;;5046039;28;25054;-62
2024/04/05 02:16:38;;;;;;;34.90;8.25;;;;;;;;;;5044117;28;25074;-62
2024/04/05 02:19:05;;;;;;;35.50;7.28;;;;;;;;;;5046535;28;25091;-61
2024/04/05 02:21:31;;;;;;;33.45;8.20;;;;;;;;;;5063130;28;25111;-62
2024/04/05 02:23:57;;;;;;;30.48;6.90;;;;;;;;;;5067531;28;25078;-63
2024/04/05 02:26:23;;;;;;;35.40;7.78;;;;;;;;;;5067655;22;25067;-63
2024/04/05 02:28:49;;;;;;;34.17;7.07;;;;;;;;;;5007624;28;25099;-64
2024/04/05 02:31:15;;;;;;;40.17;8.18;;;;;;;;;;4993411;28;25116;-64
2024/04/05 02:33:41;;;;;;;42.47;7.85;;;;;;;;;;5010897;28;25070;-67
2024/04/05 02:36:07;;;;;;;72.15;7.55;;;;;;;;;;4987331;28;25050;-65
2024/04/05 02:38:33;;;;;;;29.38;6.28;;;;;;;;;;4996277;28;25099;-64
2024/04/05 02:41:00;;;;;;;36.67;7.60;;;;;;;;;;5010473;28;25084;-63
2024/04/05 02:43:26;;;;;;;36.22;6.97;;;;;;;;;;5002200;28;25062;-64
2024/04/05 02:45:52;;;;;;;38.53;7.70;;;;;;;;;;5009949;28;25150;-64
2024/04/05 02:48:18;;;;;;;31.88;7.53;;;;;;;;;;5010147;28;25194;-65
2024/04/05 02:50:44;;;;;;;34.00;7.40;;;;;;;;;;5010397;28;25055;-64
2024/04/05 02:53:10;;;;;;;40.17;8.40;;;;;;;;;;5009890;28;25063;-63
2024/04/05 02:55:36;;;;;;;33.63;7.88;;;;;;;;;;5014132;28;25136;-63
2024/04/05 02:58:02;;;;;;;29.40;6.20;;;;;;;;;;5028287;28;25065;-64
2024/04/05 03:00:28;;;;;;;30.15;7.53;;;;;;;;;;5030260;28;25078;-63
2024/04/05 03:02:54;;;;;;;28.55;7.10;;;;;;;;;;5028215;28;25053;-63
2024/04/05 03:05:20;;;;;;;33.25;8.32;;;;;;;;;;5022474;28;25062;-63
2024/04/05 03:07:46;;;;;;;33.97;7.38;;;;;;;;;;5022595;28;25082;-62
2024/04/05 03:10:12;;;;;;;29.95;6.65;;;;;;;;;;5020103;28;25084;-63
2024/04/05 03:12:38;;;;;;;28.42;6.10;;;;;;;;;;5015072;28;25075;-64
2024/04/05 03:15:04;;;;;;;26.45;6.55;;;;;;;;;;5014783;28;25077;-63
2024/04/05 03:17:31;;;;;;;31.77;7.15;;;;;;;;;;5017646;28;25055;-64
2024/04/05 03:19:57;;;;;;;38.22;8.25;;;;;;;;;;5014482;28;25054;-62
2024/04/05 03:22:23;;;;;;;38.75;8.02;;;;;;;;;;5012978;28;25103;-63
2024/04/05 03:24:49;;;;;;;33.83;7.80;;;;;;;;;;5010479;28;25055;-63
2024/04/05 03:27:15;;;;;;;37.55;7.95;;;;;;;;;;5009483;28;25160;-63
2024/04/05 03:29:40;;;;;;;32.55;9.02;;;;;;;;;;5012030;28;25063;-65
2024/04/05 03:32:08;;;;;;;33.22;7.38;;;;;;;;;;5009523;28;25092;-64
2024/04/05 03:34:34;;;;;;;42.80;7.82;;;;;;;;;;5005520;28;25084;-64
2024/04/05 03:37:00;;;;;;;32.05;7.13;;;;;;;;;;5005663;28;25059;-65
2024/04/05 03:39:26;;;;;;;27.90;7.25;;;;;;;;;;5002746;28;25072;-63
2024/04/05 03:41:52;;;;;;;29.73;7.18;;;;;;;;;;5007943;28;25067;-64
2024/04/05 03:44:18;;;;;;;36.53;7.78;;;;;;;;;;4993309;28;25057;-64
2024/04/05 03:46:45;;;;;;;30.75;7.53;;;;;;;;;;5007157;28;25061;-63
2024/04/05 03:49:11;;;;;;;33.85;7.40;;;;;;;;;;5007933;28;25063;-62
2024/04/05 03:51:37;;;;;;;34.20;7.78;;;;;;;;;;5008956;28;25066;-62
2024/04/05 03:54:03;;;;;;;25.38;7.22;;;;;;;;;;5008040;28;25072;-63
2024/04/05 03:56:29;;;;;;;27.70;7.32;;;;;;;;;;5007124;28;25119;-64
2024/04/05 03:58:55;;;;;;;39.63;8.63;;;;;;;;;;5004428;28;25096;-63
2024/04/05 04:01:21;;;;;;;29.80;8.48;;;;;;;;;;5004729;28;25062;-63
2024/04/05 04:03:48;;;;;;;28.30;7.38;;;;;;;;;;5006586;28;25103;-63
2024/04/05 04:06:14;;;;;;;33.15;7.80;;;;;;;;;;5005048;28;25155;-64
2024/04/05 04:08:40;;;;;;;29.63;7.10;;;;;;;;;;5007214;28;25095;-64
2024/04/05 04:11:06;;;;;;;35.55;7.72;;;;;;;;;;5006587;28;25047;-64
2024/04/05 04:13:32;;;;;;;27.67;7.15;;;;;;;;;;4988523;28;25062;-62
2024/04/05 04:15:59;;;;;;;25.88;7.35;;;;;;;;;;4991441;28;25133;-64
2024/04/05 04:18:25;;;;;;;32.50;7.40;;;;;;;;;;5008575;28;25076;-65
2024/04/05 04:20:52;;;;;;;24.35;6.40;;;;;;;;;;5007037;28;25063;-63
2024/04/05 04:23:18;;;;;;;28.35;7.65;;;;;;;;;;5004574;28;25070;-65
2024/04/05 04:25:45;;;;;;;25.98;7.82;;;;;;;;;;5007869;28;25096;-65
2024/04/05 04:28:11;;;;;;;34.15;8.90;;;;;;;;;;5008716;28;25075;-65
2024/04/05 04:30:37;;;;;;;31.90;8.18;;;;;;;;;;5000708;28;25055;-63
2024/04/05 04:33:03;;;;;;;29.58;7.25;;;;;;;;;;5008231;28;25056;-64
2024/04/05 04:35:29;;;;;;;25.10;7.00;;;;;;;;;;5008013;28;25080;-63
2024/04/05 04:37:55;;;;;;;32.13;7.32;;;;;;;;;;5008050;28;25193;-64
2024/04/05 04:40:21;;;;;;;30.55;7.22;;;;;;;;;;5008525;28;25149;-63
2024/04/05 04:42:48;;;;;;;24.67;7.07;;;;;;;;;;5013803;28;25128;-64
2024/04/05 04:45:14;;;;;;;21.60;6.93;;;;;;;;;;5013711;28;25051;-64
2024/04/05 04:47:39;;;;;;;26.00;7.30;;;;;;;;;;5010766;28;25075;-63
2024/04/05 04:50:06;;;;;;;25.05;6.63;;;;;;;;;;5012045;28;25150;-64
2024/04/05 04:52:32;;;;;;;24.92;6.78;;;;;;;;;;5009848;28;25058;-63
2024/04/05 04:54:58;;;;;;;24.13;6.70;;;;;;;;;;5006798;28;25057;-62
2024/04/05 04:57:24;;;;;;;29.17;6.68;;;;;;;;;;5007131;28;25049;-64
2024/04/05 04:59:51;;;;;;;28.20;7.53;;;;;;;;;;5009280;28;25081;-63
2024/04/05 05:02:17;;;;;;;22.70;6.60;;;;;;;;;;5014788;28;25062;-63
2024/04/05 05:04:43;;;;;;;22.70;7.05;;;;;;;;;;5004121;28;25121;-64
2024/04/05 05:07:09;;;;;;;21.50;6.00;;;;;;;;;;5005733;28;25071;-62
2024/04/05 05:09:35;;;;;;;24.00;6.00;;;;;;;;;;5005424;28;25154;-64
2024/04/05 05:12:01;;;;;;;24.75;6.60;;;;;;;;;;5005510;28;25075;-64
2024/04/05 05:14:27;;;;;;;22.05;5.68;;;;;;;;;;5007619;28;25065;-63
2024/04/05 05:16:53;;;;;;;22.88;6.07;;;;;;;;;;5004631;28;25062;-64
2024/04/05 05:19:20;;;;;;;25.13;6.00;;;;;;;;;;5007017;28;25062;-61
2024/04/05 05:21:46;;;;;;;24.17;5.63;;;;;;;;;;5009353;28;25125;-63
2024/04/05 05:24:13;;;;;;;23.67;5.40;;;;;;;;;;5016826;28;25077;-64
2024/04/05 05:26:39;;;;;;;20.13;5.43;;;;;;;;;;5022191;28;25059;-62
2024/04/05 05:29:05;;;;;;;19.05;5.32;;;;;;;;;;5031906;28;25099;-64
2024/04/05 05:31:31;;;;;;;21.88;5.25;;;;;;;;;;5024766;28;25066;-63
2024/04/05 05:33:57;;;;;;;27.85;6.10;;;;;;;;;;5029032;28;25078;-62
2024/04/05 05:36:23;;;;;;;22.27;6.15;;;;;;;;;;5017218;28;25130;-66
2024/04/05 05:38:49;;;;;;;19.17;5.35;;;;;;;;;;5009992;28;25068;-63
2024/04/05 05:41:15;;;;;;;27.42;6.45;;;;;;;;;;5009076;28;25084;-63
2024/04/05 05:43:41;;;;;;;25.15;4.97;;;;;;;;;;5010353;28;25073;-63
2024/04/05 05:46:07;;;;;;;18.40;5.50;;;;;;;;;;5007253;28;25076;-63
2024/04/05 05:48:33;;;;;;;25.95;6.38;;;;;;;;;;4998229;28;25064;-63
2024/04/05 05:51:00;;;;;;;22.17;6.05;;;;;;;;;;5006076;28;25065;-61
2024/04/05 05:53:26;;;;;;;24.80;6.05;;;;;;;;;;4998458;28;25152;-64
2024/04/05 05:55:52;;;;;;;22.23;5.45;;;;;;;;;;5006093;28;25074;-63
2024/04/05 05:58:18;;;;;;;19.83;5.70;;;;;;;;;;5006006;28;25071;-63
2024/04/05 06:00:44;;;;;;;17.70;5.65;;;;;;;;;;4986339;28;25108;-63
2024/04/05 06:03:11;;;;;;;23.33;6.35;;;;;;;;;;5005810;28;25066;-63
2024/04/05 06:05:37;;;;;;;21.30;5.60;;;;;;;;;;5006198;28;25089;-63
2024/04/05 06:08:03;;;;;;;25.05;6.00;;;;;;;;;;5006236;28;25053;-63
2024/04/05 06:10:29;;;;;;;23.00;5.72;;;;;;;;;;5007749;28;25093;-64
2024/04/05 06:12:56;;;;;;;24.02;5.68;;;;;;;;;;5012792;28;25143;-63
2024/04/05 06:15:22;;;;;;;28.60;5.43;;;;;;;;;;5005728;28;25055;-62
2024/04/05 06:17:48;;;;;;;22.65;5.95;;;;;;;;;;5004024;28;25055;-63
2024/04/05 06:20:17;;;;;;;19.65;5.95;;;;;;;;;;5003640;28;25065;-65
2024/04/05 06:22:43;;;;;;;18.40;4.75;;;;;;;;;;5007287;28;25078;-63
2024/04/05 06:25:11;;;;;;;18.73;5.30;;;;;;;;;;5011032;28;25122;-62
2024/04/05 06:27:37;;;;;;;19.45;5.28;;;;;;;;;;5011758;28;25053;-63
2024/04/05 06:30:03;;;;;;;19.20;5.32;;;;;;;;;;5004175;28;25074;-63
2024/04/05 06:32:31;;;;;;;20.55;5.07;;;;;;;;;;5004171;28;25152;-62
2024/04/05 06:34:57;;;;;;;21.95;5.90;;;;;;;;;;5008111;28;25131;-64
2024/04/05 06:37:25;;;;;;;19.70;5.63;;;;;;;;;;5010740;28;25051;-65
2024/04/05 06:39:55;;;;;;;17.08;5.28;;;;;;;;;;5005713;28;25055;-64
2024/04/05 06:42:21;;;;;;;19.52;4.80;;;;;;;;;;5005117;28;25069;-64
2024/04/05 06:44:53;;;;;;;16.80;4.93;;;;;;;;;;4992155;28;25051;-67
2024/04/05 06:47:19;;;;;;;;;;;;;;;;;;5002288;28;25158;-63
2024/04/05 06:49:45;;;;;;;20.23;4.50;;;;;;;;;;5004230;28;24175;-66
2024/04/05 06:52:13;;;;;;;16.13;4.53;;;;;;;;;;4991191;28;25148;-65
2024/04/05 06:54:43;;;;;;;17.80;4.72;;;;;;;;;;5002030;28;25044;-64
2024/04/05 06:57:09;;;;;;;15.75;5.47;;;;;;;;;;5005147;28;25064;-63
2024/04/05 06:59:35;;;;;;;11.75;3.97;;;;;;;;;;5004500;28;25062;-65
2024/04/05 07:02:01;;;;;;;18.13;5.10;;;;;;;;;;5010459;28;25114;-64
2024/04/05 07:04:27;;;;;;;16.35;4.68;;;;;;;;;;5009849;28;25099;-65
2024/04/05 07:06:56;;;;;;;16.92;4.50;;;;;;;;;;5010366;28;25099;-64
2024/04/05 07:09:29;;;;;;;18.05;4.80;;;;;;;;;;5007351;28;25135;-64
2024/04/05 07:11:56;;;;;;;23.20;6.57;;;;;;;;;;5009710;28;25130;-64
2024/04/05 07:14:22;;;;;;;24.92;6.82;;;;;;;;;;5019575;28;25150;-65
2024/04/05 07:16:48;;;;;;;19.02;6.20;;;;;;;;;;5001306;28;25084;-65
2024/04/05 07:19:16;;;;;;;24.33;7.25;;;;;;;;;;5010678;28;25139;-64
2024/04/05 07:21:45;;;;;;;14.60;5.63;;;;;;;;;;5004916;28;25080;-63
2024/04/05 07:24:11;;;;;;;23.52;6.45;;;;;;;;;;5001961;28;25050;-63
2024/04/05 07:26:37;;;;;;;19.73;6.20;;;;;;;;;;5008785;28;25094;-63
2024/04/05 07:29:03;;;;;;;15.18;5.32;;;;;;;;;;5014809;28;25052;-65
2024/04/05 07:31:30;;;;;;;14.90;5.90;;;;;;;;;;5013934;28;25184;-64
2024/04/05 07:33:56;;;;;;;21.35;5.18;;;;;;;;;;5002734;28;25112;-66
2024/04/05 07:36:22;;;;;;;18.08;5.32;;;;;;;;;;5010025;28;25075;-65
2024/04/05 07:38:50;;;;;;;21.00;5.70;;;;;;;;;;5005265;28;25047;-63
2024/04/05 07:41:17;;;;;;;17.35;5.00;;;;;;;;;;5014442;28;25085;-66
2024/04/05 07:43:43;;;;;;;15.35;4.47;;;;;;;;;;5012659;28;25074;-64
2024/04/05 07:46:09;;;;;;;14.35;4.68;;;;;;;;;;5015293;28;25109;-64
2024/04/05 07:48:35;;;;;;;13.27;4.88;;;;;;;;;;5015830;28;25069;-64
2024/04/05 07:51:02;;;;;;;18.67;5.07;;;;;;;;;;5014297;28;25073;-65
2024/04/05 07:53:28;;;;;;;19.00;4.97;;;;;;;;;;5013411;28;25056;-63
2024/04/05 07:55:54;;;;;;;15.90;4.55;;;;;;;;;;5016116;28;25073;-65
2024/04/05 07:58:21;;;;;;;17.52;4.22;;;;;;;;;;5017007;28;25088;-65
2024/04/05 08:00:48;;;;;;;18.65;4.78;;;;;;;;;;5025147;28;25068;-64
2024/04/05 08:03:14;;;;;;;13.40;3.67;;;;;;;;;;5031400;28;25146;-64
2024/04/05 08:05:43;;;;;;;15.63;3.97;;;;;;;;;;5022466;28;25060;-64
2024/04/05 08:08:09;;;;;;;13.90;4.10;;;;;;;;;;5018911;28;25088;-64
2024/04/05 08:10:36;;;;;;;11.63;3.42;;;;;;;;;;5013139;28;25129;-65
2024/04/05 08:13:02;;;;;;;13.68;3.65;;;;;;;;;;5003226;28;25068;-63
2024/04/05 08:15:30;;;;;;;11.00;3.50;;;;;;;;;;5009857;28;25095;-63
2024/04/05 08:17:56;;;;;;;8.85;2.83;;;;;;;;;;5012727;28;25063;-63
2024/04/05 08:20:22;;;;;;;11.15;2.75;;;;;;;;;;5010285;28;25064;-63
2024/04/05 08:22:48;;;;;;;8.90;2.78;;;;;;;;;;4998038;28;25137;-66
2024/04/05 08:25:14;;;;;;;11.13;2.78;;;;;;;;;;4999311;28;25075;-62
2024/04/05 08:27:44;;;;;;;9.00;3.47;;;;;;;;;;5028762;23;25156;-64
2024/04/05 08:30:15;;;;;;;10.27;3.15;;;;;;;;;;5056466;28;25099;-63
2024/04/05 08:32:42;;;;;;;9.43;3.38;;;;;;;;;;5059120;28;25160;-64
2024/04/05 08:35:13;;;;;;;11.63;3.00;;;;;;;;;;5067866;28;25055;-62
2024/04/05 08:37:39;;;;;;;8.20;2.75;;;;;;;;;;5059086;28;25073;-62
2024/04/05 08:40:07;;;;;;;6.15;2.88;;;;;;;;;;5067561;28;25075;-63
2024/04/05 08:42:34;;;;;;;11.25;3.38;;;;;;;;;;5065781;28;25104;-63
2024/04/05 08:45:01;;;;;;;9.07;3.28;;;;;;;;;;5062647;28;25068;-62
2024/04/05 08:47:27;;;;;;;10.13;3.45;;;;;;;;;;5054465;28;25073;-63
2024/04/05 08:49:54;;;;;;;7.90;3.15;;;;;;;;;;5057988;28;25060;-66
2024/04/05 08:52:21;;;;;;;8.75;3.30;;;;;;;;;;5056180;28;25153;-64
2024/04/05 08:54:48;;;;;;;12.63;3.50;;;;;;;;;;5064861;28;25063;-64
2024/04/05 08:57:15;;;;;;;7.63;2.92;;;;;;;;;;5064348;28;25040;-65
2024/04/05 08:59:44;;;;;;;7.88;3.38;;;;;;;;;;5059391;28;25104;-65
2024/04/05 09:02:11;;;;;;;6.85;3.45;;;;;;;;;;5060470;28;25142;-65
2024/04/05 09:04:37;;;;;;;8.00;2.90;;;;;;;;;;5067467;28;25154;-68
2024/04/05 09:07:04;;;;;;;9.27;3.15;;;;;;;;;;5063899;28;25108;-65
2024/04/05 09:09:31;;;;;;;13.32;3.50;;;;;;;;;;5060015;28;25062;-65
2024/04/05 09:12:08;;;;;;;11.27;3.50;;;;;;;;;;5063314;28;25122;-65
2024/04/05 09:14:38;;;;;;;10.68;2.92;;;;;;;;;;5065274;28;25061;-65
2024/04/05 09:17:04;;;;;;;8.00;3.13;;;;;;;;;;5062418;28;25161;-64
2024/04/05 09:19:31;;;;;;;6.25;3.13;;;;;;;;;;5067891;28;25120;-65
2024/04/05 09:21:57;;;;;;;11.23;3.83;;;;;;;;;;5061088;28;25060;-64
2024/04/05 09:24:23;;;;;;;14.05;3.45;;;;;;;;;;5065562;28;25046;-64
2024/04/05 09:27:06;;;;;;;7.07;2.70;;;;;;;;;;5059531;28;25093;-63
2024/04/05 09:29:32;;;;;;;6.72;2.90;;;;;;;;;;5062933;28;25119;-63
2024/04/05 09:31:58;;;;;;;6.63;2.60;;;;;;;;;;5063940;28;25062;-66
2024/04/05 09:34:29;;;;;;;6.22;2.72;;;;;;;;;;5065312;28;25054;-64
2024/04/05 09:36:56;;;;;;;10.00;3.05;;;;;;;;;;5065403;28;25069;-64
2024/04/05 09:39:22;;;;;;;7.55;2.72;;;;;;;;;;5066977;28;25055;-64
2024/04/05 09:41:50;;;;;;;10.13;2.75;;;;;;;;;;5060118;28;25136;-65
2024/04/05 09:44:17;;;;;;;9.02;3.45;;;;;;;;;;5057986;28;25025;-65
2024/04/05 09:46:44;;;;;;;7.82;3.65;;;;;;;;;;5057069;28;25084;-64
2024/04/05 09:49:14;;;;;;;10.65;3.30;;;;;;;;;;5061753;28;25057;-63
2024/04/05 09:51:48;;;;;;;6.80;3.13;;;;;;;;;;5059673;28;25099;-64
2024/04/05 09:54:19;;;;;;;4.60;2.45;;;;;;;;;;5060019;28;25041;-64
2024/04/05 09:56:45;;;;;;;8.85;2.88;;;;;;;;;;5063792;28;25139;-65
2024/04/05 09:59:13;;;;;;;6.78;2.42;;;;;;;;;;5063063;28;25101;-64
2024/04/05 10:01:40;;;;;;;6.40;2.40;;;;;;;;;;5062721;28;25049;-65
2024/04/05 10:04:10;;;;;;;9.52;2.90;;;;;;;;;;5060476;28;25150;-65
2024/04/05 10:06:38;;;;;;;6.10;2.00;;;;;;;;;;5056205;28;25061;-64
2024/04/05 10:09:18;;;;;;;6.18;1.95;;;;;;;;;;5061373;28;25081;-65
2024/04/05 10:11:45;;;;;;;8.52;2.65;;;;;;;;;;5063139;28;25153;-66
2024/04/05 10:14:20;;;;;;;7.30;2.58;;;;;;;;;;5066711;28;25077;-66
2024/04/05 10:16:46;;;;;;;4.72;2.25;;;;;;;;;;5064227;28;25146;-63
2024/04/05 10:19:12;;;;;;;5.43;2.28;;;;;;;;;;5061835;28;25125;-66
2024/04/05 10:21:38;;;;;;;4.00;2.30;;;;;;;;;;5043449;28;25077;-62
2024/04/05 10:24:08;;;;;;;5.50;2.35;;;;;;;;;;5057635;28;25080;-65
2024/04/05 10:26:34;;;;;;;6.05;2.25;;;;;;;;;;5058195;28;25067;-62
2024/04/05 10:29:04;;;;;;;6.65;1.73;;;;;;;;;;5044492;28;25061;-66
2024/04/05 10:31:31;;;;;;;7.75;2.30;;;;;;;;;;5009426;28;25058;-64
2024/04/05 10:33:58;;;;;;;4.85;2.30;;;;;;;;;;5023774;28;25080;-64
2024/04/05 10:36:24;;;;;;;6.35;2.08;;;;;;;;;;5023419;28;25073;-66
2024/04/05 10:38:50;;;;;;;7.30;2.30;;;;;;;;;;5007603;28;25093;-64
2024/04/05 10:41:16;;;;;;;3.97;1.55;;;;;;;;;;5024150;28;25087;-65
2024/04/05 10:43:43;;;;;;;6.95;2.65;;;;;;;;;;5013282;28;25068;-63
2024/04/05 10:46:10;;;;;;;5.28;2.08;;;;;;;;;;5033656;28;25086;-63
2024/04/05 10:48:36;;;;;;;7.65;2.42;;;;;;;;;;5050600;28;25077;-63
2024/04/05 10:51:04;;;;;;;6.28;2.05;;;;;;;;;;5047870;28;25137;-63
2024/04/05 10:53:30;;;;;;;9.77;2.80;;;;;;;;;;5051377;28;25084;-64
2024/04/05 10:55:57;;;;;;;6.72;2.45;;;;;;;;;;5047071;28;25274;-64
2024/04/05 10:58:23;;;;;;;5.10;2.28;;;;;;;;;;5052326;28;25061;-64
2024/04/05 11:00:49;;;;;;;8.68;2.80;;;;;;;;;;5051265;28;25129;-65
2024/04/05 11:03:16;;;;;;;7.28;2.20;;;;;;;;;;5052652;28;25150;-66
2024/04/05 11:05:44;;;;;;;6.80;2.25;;;;;;;;;;5050378;28;25077;-66
2024/04/05 11:08:13;;;;;;;10.27;2.97;;;;;;;;;;5051298;28;25058;-62
2024/04/05 11:10:39;;;;;;;7.53;2.50;;;;;;;;;;5048741;28;25161;-64
2024/04/05 11:13:20;;;;;;;5.15;2.50;;;;;;;;;;5054666;28;25108;-66
2024/04/05 11:15:47;;;;;;;6.57;2.67;;;;;;;;;;5052955;28;25064;-66
2024/04/05 11:18:13;;;;;;;10.70;3.20;;;;;;;;;;5053425;28;25070;-66
2024/04/05 11:20:39;;;;;;;9.65;2.88;;;;;;;;;;5057156;28;25046;-65
2024/04/05 11:23:06;;;;;;;8.70;2.80;;;;;;;;;;5037673;28;25153;-66
2024/04/05 11:25:33;;;;;;;8.02;2.67;;;;;;;;;;5034645;28;25096;-64
2024/04/05 11:27:59;;;;;;;9.95;2.88;;;;;;;;;;5054604;28;25059;-65
2024/04/05 11:30:25;;;;;;;7.78;2.95;;;;;;;;;;5038176;28;25092;-66
2024/04/05 11:32:51;;;;;;;6.10;2.80;;;;;;;;;;5056317;28;25052;-64
2024/04/05 11:35:17;;;;;;;10.15;2.92;;;;;;;;;;5052065;28;25061;-66
2024/04/05 11:37:44;;;;;;;6.63;3.30;;;;;;;;;;5050642;28;25119;-66
2024/04/05 11:40:10;;;;;;;8.73;2.88;;;;;;;;;;5051896;28;25091;-67
2024/04/05 11:42:37;;;;;;;10.43;3.35;;;;;;;;;;5045194;28;25229;-65
2024/04/05 11:45:04;;;;;;;5.75;2.80;;;;;;;;;;5048532;28;25093;-65
2024/04/05 11:47:30;;;;;;;11.48;3.30;;;;;;;;;;5046986;28;25068;-64
2024/04/05 11:49:56;;;;;;;10.32;3.70;;;;;;;;;;5043715;28;25075;-65
2024/04/05 11:52:22;;;;;;;7.28;3.28;;;;;;;;;;5045122;28;25083;-67
2024/04/05 11:54:48;;;;;;;7.63;3.30;;;;;;;;;;5046469;28;25119;-63
2024/04/05 11:57:14;;;;;;;7.93;3.55;;;;;;;;;;5046819;28;25043;-66
2024/04/05 11:59:42;;;;;;;6.93;3.38;;;;;;;;;;5032065;28;25140;-66
2024/04/05 12:02:08;;;;;;;7.45;3.78;;;;;;;;;;5044700;28;25132;-64
2024/04/05 12:04:34;;;;;;;7.53;4.05;;;;;;;;;;5050556;28;25157;-64
2024/04/05 12:07:00;;;;;;;11.73;4.03;;;;;;;;;;5047525;28;25185;-65
2024/04/05 12:09:26;;;;;;;9.88;3.42;;;;;;;;;;5045757;28;25074;-64
2024/04/05 12:11:52;;;;;;;8.27;3.45;;;;;;;;;;5044628;28;25062;-65
2024/04/05 12:14:19;;;;;;;6.97;3.33;;;;;;;;;;5047859;28;25107;-64
2024/04/05 12:16:45;;;;;;;6.47;3.05;;;;;;;;;;5047086;28;25065;-67
2024/04/05 12:19:11;;;;;;;6.50;2.88;;;;;;;;;;5042633;28;25058;-67
2024/04/05 12:21:37;;;;;;;7.38;3.33;;;;;;;;;;5044947;28;25105;-65
2024/04/05 12:24:03;;;;;;;7.15;3.17;;;;;;;;;;5048261;28;25092;-68
2024/04/05 12:26:29;;;;;;;8.07;3.20;;;;;;;;;;5046690;28;25064;-65
2024/04/05 12:28:55;;;;;;;9.32;2.80;;;;;;;;;;5043377;28;25061;-64
2024/04/05 12:31:21;;;;;;;10.25;3.33;;;;;;;;;;5049294;28;25137;-66
2024/04/05 12:33:47;;;;;;;5.82;3.15;;;;;;;;;;5039889;28;25072;-65
2024/04/05 12:36:14;;;;;;;7.07;2.95;;;;;;;;;;5045762;28;25042;-67
2024/04/05 12:38:41;;;;;;;8.88;2.80;;;;;;;;;;5047942;28;25179;-66
2024/04/05 12:41:07;;;;;;;6.22;2.88;;;;;;;;;;5024104;28;25141;-64
2024/04/05 12:43:37;;;;;;;12.48;3.22;;;;;;;;;;5028802;28;25070;-66
2024/04/05 12:46:07;;;;;;;8.10;3.10;;;;;;;;;;5037394;28;25137;-66
2024/04/05 12:48:33;;;;;;;10.43;2.63;;;;;;;;;;5039562;28;25120;-67
2024/04/05 12:51:04;;;;;;;11.13;3.50;;;;;;;;;;5038519;28;25058;-67
2024/04/05 12:53:30;;;;;;;5.72;2.28;;;;;;;;;;5028624;28;25107;-65
2024/04/05 12:55:57;;;;;;;7.03;2.30;;;;;;;;;;5044770;28;25069;-66
2024/04/05 12:58:37;;;;;;;6.43;2.88;;;;;;;;;;5048568;28;25082;-67
2024/04/05 13:01:04;;;;;;;8.27;2.88;;;;;;;;;;5027125;28;25070;-67
2024/04/05 13:03:33;;;;;;;8.85;4.00;;;;;;;;;;5040990;28;25068;-66
2024/04/05 13:06:09;;;;;;;8.50;2.85;;;;;;;;;;5043787;28;25111;-67
2024/04/05 13:08:36;;;;;;;8.98;2.65;;;;;;;;;;5042790;28;25098;-64
2024/04/05 13:11:04;;;;;;;9.30;2.72;;;;;;;;;;5046475;28;25060;-66
2024/04/05 13:13:30;;;;;;;9.02;2.67;;;;;;;;;;5047415;28;25127;-67
2024/04/05 13:15:57;;;;;;;12.18;3.10;;;;;;;;;;5047572;28;25136;-67
2024/04/05 13:18:23;;;;;;;11.43;2.92;;;;;;;;;;5046308;28;25053;-65
2024/04/05 13:20:49;;;;;;;9.00;2.60;;;;;;;;;;5040797;28;25043;-66
2024/04/05 13:23:15;;;;;;;15.60;3.97;;;;;;;;;;5019274;28;25054;-62
2024/04/05 13:25:42;;;;;;;11.68;3.85;;;;;;;;;;5026587;28;25068;-64
2024/04/05 13:28:09;;;;;;;10.93;3.33;;;;;;;;;;5042543;28;25068;-66
2024/04/05 13:30:35;;;;;;;10.57;3.40;;;;;;;;;;5047068;28;25058;-64
2024/04/05 13:33:01;;;;;;;9.48;3.38;;;;;;;;;;5041080;28;25100;-67
2024/04/05 13:35:30;;;;;;;15.60;4.22;;;;;;;;;;5030159;28;25049;-62
2024/04/05 13:37:59;;;;;;;14.60;3.97;;;;;;;;;;5043595;28;25063;-66
2024/04/05 13:40:26;;;;;;;11.55;3.42;;;;;;;;;;5048974;28;25060;-68
2024/04/05 13:42:52;;;;;;;10.73;3.95;;;;;;;;;;5043889;28;25070;-65
2024/04/05 13:45:18;;;;;;;6.88;2.58;;;;;;;;;;5046394;28;25056;-65
2024/04/05 13:47:44;;;;;;;14.73;3.80;;;;;;;;;;5042366;28;25083;-64
2024/04/05 13:50:13;;;;;;;9.38;3.22;;;;;;;;;;5045370;28;25047;-65
2024/04/05 13:52:39;;;;;;;12.68;3.45;;;;;;;;;;5045665;28;25070;-64
2024/04/05 13:55:05;;;;;;;15.13;4.15;;;;;;;;;;5030933;28;25110;-65
2024/04/05 13:57:32;;;;;;;18.65;3.90;;;;;;;;;;5046132;28;25077;-64
2024/04/05 13:59:58;;;;;;;13.75;3.15;;;;;;;;;;5049215;28;25129;-67
2024/04/05 14:02:26;;;;;;;10.15;3.20;;;;;;;;;;5047644;28;25071;-64
2024/04/05 14:04:59;;;;;;;15.98;3.25;;;;;;;;;;5039939;28;25064;-64
2024/04/05 14:07:25;;;;;;;12.88;3.25;;;;;;;;;;5050191;28;25080;-66
2024/04/05 14:09:51;;;;;;;13.93;3.63;;;;;;;;;;5049887;28;25082;-64
2024/04/05 14:12:17;;;;;;;15.40;3.42;;;;;;;;;;5047036;28;25162;-64
2024/04/05 14:14:46;;;;;;;13.52;3.30;;;;;;;;;;5034602;28;25111;-67
2024/04/05 14:17:12;;;;;;;12.02;3.22;;;;;;;;;;5026271;28;25069;-66
2024/04/05 14:19:39;;;;;;;13.23;3.30;;;;;;;;;;5050957;28;25089;-62
2024/04/05 14:22:05;;;;;;;16.38;4.38;;;;;;;;;;5026236;28;25081;-65
2024/04/05 14:24:31;;;;;;;12.75;3.22;;;;;;;;;;5038674;28;25072;-66
2024/04/05 14:26:57;;;;;;;15.00;3.53;;;;;;;;;;5044379;28;25060;-65
2024/04/05 14:29:24;;;;;;;12.73;3.63;;;;;;;;;;5058846;22;25064;-73
2024/04/05 14:31:50;;;;;;;11.48;3.13;;;;;;;;;;5064923;28;25077;-69